sensor_id;sensor_type;location;lat;lon;timestamp;P1;durP1;ratioP1;P2;durP2;ratioP2
36441;SDS011;64346;50.820;16.274;2022-10-16T00:01:22;17.85;;;13.40;;
36441;SDS011;64346;50.820;16.274;2022-10-16T00:03:54;17.42;;;12.32;;
36441;SDS011;64346;50.820;16.274;2022-10-16T00:06:22;18.23;;;13.07;;
36441;SDS011;64346;50.820;16.274;2022-10-16T00:08:50;19.55;;;13.65;;
36441;SDS011;64346;50.820;16.274;2022-10-16T00:11:20;22.65;;;16.45;;
36441;SDS011;64346;50.820;16.274;2022-10-16T00:13:57;22.10;;;15.88;;
36441;SDS011;64346;50.820;16.274;2022-10-16T00:16:26;26.13;;;18.70;;
36441;SDS011;64346;50.820;16.274;2022-10-16T00:18:55;25.45;;;18.70;;
36441;SDS011;64346;50.820;16.274;2022-10-16T00:21:23;21.90;;;16.85;;
36441;SDS011;64346;50.820;16.274;2022-10-16T00:23:53;24.20;;;16.98;;
36441;SDS011;64346;50.820;16.274;2022-10-16T00:26:22;25.02;;;16.38;;
36441;SDS011;64346;50.820;16.274;2022-10-16T00:28:50;22.85;;;16.65;;
36441;SDS011;64346;50.820;16.274;2022-10-16T00:31:21;22.40;;;15.60;;
36441;SDS011;64346;50.820;16.274;2022-10-16T00:33:49;22.42;;;15.82;;
36441;SDS011;64346;50.820;16.274;2022-10-16T00:36:18;22.38;;;15.63;;
36441;SDS011;64346;50.820;16.274;2022-10-16T00:38:49;21.52;;;13.70;;
36441;SDS011;64346;50.820;16.274;2022-10-16T00:41:18;22.73;;;15.45;;
36441;SDS011;64346;50.820;16.274;2022-10-16T00:43:54;19.33;;;14.02;;
36441;SDS011;64346;50.820;16.274;2022-10-16T00:51:39;20.00;;;14.00;;
36441;SDS011;64346;50.820;16.274;2022-10-16T00:54:08;18.98;;;13.40;;
36441;SDS011;64346;50.820;16.274;2022-10-16T00:56:47;18.70;;;11.50;;
36441;SDS011;64346;50.820;16.274;2022-10-16T00:59:18;18.77;;;12.77;;
36441;SDS011;64346;50.820;16.274;2022-10-16T01:01:48;18.00;;;11.85;;
36441;SDS011;64346;50.820;16.274;2022-10-16T01:04:18;16.77;;;12.10;;
36441;SDS011;64346;50.820;16.274;2022-10-16T01:06:50;19.65;;;13.40;;
36441;SDS011;64346;50.820;16.274;2022-10-16T01:13:18;21.88;;;15.27;;
36441;SDS011;64346;50.820;16.274;2022-10-16T01:18:11;19.95;;;14.07;;
36441;SDS011;64346;50.820;16.274;2022-10-16T01:20:47;21.58;;;15.05;;
36441;SDS011;64346;50.820;16.274;2022-10-16T01:29:20;21.40;;;13.07;;
36441;SDS011;64346;50.820;16.274;2022-10-16T01:31:59;18.92;;;13.00;;
36441;SDS011;64346;50.820;16.274;2022-10-16T01:34:32;19.13;;;12.45;;
36441;SDS011;64346;50.820;16.274;2022-10-16T01:37:10;17.42;;;12.13;;
36441;SDS011;64346;50.820;16.274;2022-10-16T01:39:44;18.48;;;12.05;;
36441;SDS011;64346;50.820;16.274;2022-10-16T01:42:15;19.65;;;13.80;;
36441;SDS011;64346;50.820;16.274;2022-10-16T01:47:15;24.13;;;15.77;;
36441;SDS011;64346;50.820;16.274;2022-10-16T01:49:44;28.75;;;18.35;;
36441;SDS011;64346;50.820;16.274;2022-10-16T01:52:16;28.92;;;18.65;;
36441;SDS011;64346;50.820;16.274;2022-10-16T01:54:47;29.02;;;19.48;;
36441;SDS011;64346;50.820;16.274;2022-10-16T01:57:16;30.08;;;19.75;;
36441;SDS011;64346;50.820;16.274;2022-10-16T01:59:49;27.38;;;18.20;;
36441;SDS011;64346;50.820;16.274;2022-10-16T02:02:22;26.95;;;18.48;;
36441;SDS011;64346;50.820;16.274;2022-10-16T02:04:58;27.92;;;17.27;;
36441;SDS011;64346;50.820;16.274;2022-10-16T02:07:42;21.58;;;14.55;;
36441;SDS011;64346;50.820;16.274;2022-10-16T02:10:09;21.00;;;14.07;;
36441;SDS011;64346;50.820;16.274;2022-10-16T02:12:37;23.65;;;15.60;;
36441;SDS011;64346;50.820;16.274;2022-10-16T02:15:14;23.40;;;15.63;;
36441;SDS011;64346;50.820;16.274;2022-10-16T02:17:41;23.65;;;16.30;;
36441;SDS011;64346;50.820;16.274;2022-10-16T02:20:11;27.67;;;16.92;;
36441;SDS011;64346;50.820;16.274;2022-10-16T02:22:40;26.95;;;17.40;;
36441;SDS011;64346;50.820;16.274;2022-10-16T02:28:08;22.20;;;15.23;;
36441;SDS011;64346;50.820;16.274;2022-10-16T02:30:43;19.08;;;11.60;;
36441;SDS011;64346;50.820;16.274;2022-10-16T02:33:12;11.82;;;7.10;;
36441;SDS011;64346;50.820;16.274;2022-10-16T02:35:41;10.13;;;6.18;;
36441;SDS011;64346;50.820;16.274;2022-10-16T02:38:11;9.75;;;5.60;;
36441;SDS011;64346;50.820;16.274;2022-10-16T02:40:42;7.07;;;4.05;;
36441;SDS011;64346;50.820;16.274;2022-10-16T02:43:10;7.03;;;3.90;;
36441;SDS011;64346;50.820;16.274;2022-10-16T02:45:40;6.00;;;3.63;;
36441;SDS011;64346;50.820;16.274;2022-10-16T02:48:08;5.93;;;3.70;;
36441;SDS011;64346;50.820;16.274;2022-10-16T02:50:35;7.90;;;4.30;;
36441;SDS011;64346;50.820;16.274;2022-10-16T02:53:02;14.65;;;8.10;;
36441;SDS011;64346;50.820;16.274;2022-10-16T02:55:31;12.65;;;7.45;;
36441;SDS011;64346;50.820;16.274;2022-10-16T02:58:00;14.52;;;7.72;;
36441;SDS011;64346;50.820;16.274;2022-10-16T03:00:28;11.02;;;6.50;;
36441;SDS011;64346;50.820;16.274;2022-10-16T03:02:55;11.48;;;6.60;;
36441;SDS011;64346;50.820;16.274;2022-10-16T03:05:23;10.88;;;5.55;;
36441;SDS011;64346;50.820;16.274;2022-10-16T03:07:55;9.75;;;5.38;;
36441;SDS011;64346;50.820;16.274;2022-10-16T03:10:22;12.35;;;6.78;;
36441;SDS011;64346;50.820;16.274;2022-10-16T03:12:49;10.32;;;5.43;;
36441;SDS011;64346;50.820;16.274;2022-10-16T03:15:17;11.90;;;6.53;;
36441;SDS011;64346;50.820;16.274;2022-10-16T03:17:49;10.00;;;5.25;;
36441;SDS011;64346;50.820;16.274;2022-10-16T03:20:19;9.70;;;4.22;;
36441;SDS011;64346;50.820;16.274;2022-10-16T03:22:46;11.63;;;5.88;;
36441;SDS011;64346;50.820;16.274;2022-10-16T03:25:16;10.32;;;6.28;;
36441;SDS011;64346;50.820;16.274;2022-10-16T03:27:43;11.55;;;6.20;;
36441;SDS011;64346;50.820;16.274;2022-10-16T03:30:13;11.75;;;5.88;;
36441;SDS011;64346;50.820;16.274;2022-10-16T03:32:45;11.65;;;6.68;;
36441;SDS011;64346;50.820;16.274;2022-10-16T03:35:13;11.07;;;6.45;;
36441;SDS011;64346;50.820;16.274;2022-10-16T03:37:40;10.70;;;5.28;;
36441;SDS011;64346;50.820;16.274;2022-10-16T03:40:08;9.43;;;5.10;;
36441;SDS011;64346;50.820;16.274;2022-10-16T03:42:38;8.82;;;5.38;;
36441;SDS011;64346;50.820;16.274;2022-10-16T03:45:06;8.02;;;5.05;;
36441;SDS011;64346;50.820;16.274;2022-10-16T03:47:33;5.32;;;2.42;;
36441;SDS011;64346;50.820;16.274;2022-10-16T03:50:01;4.30;;;2.42;;
36441;SDS011;64346;50.820;16.274;2022-10-16T03:52:29;4.30;;;2.22;;
36441;SDS011;64346;50.820;16.274;2022-10-16T03:54:56;3.70;;;2.10;;
36441;SDS011;64346;50.820;16.274;2022-10-16T03:57:24;2.08;;;1.65;;
36441;SDS011;64346;50.820;16.274;2022-10-16T03:59:51;3.03;;;1.70;;
36441;SDS011;64346;50.820;16.274;2022-10-16T04:02:21;2.67;;;1.67;;
36441;SDS011;64346;50.820;16.274;2022-10-16T04:04:48;3.60;;;1.80;;
36441;SDS011;64346;50.820;16.274;2022-10-16T04:07:16;2.55;;;2.05;;
36441;SDS011;64346;50.820;16.274;2022-10-16T04:09:43;3.22;;;2.00;;
36441;SDS011;64346;50.820;16.274;2022-10-16T04:12:12;3.08;;;1.98;;
36441;SDS011;64346;50.820;16.274;2022-10-16T04:14:40;3.13;;;2.10;;
36441;SDS011;64346;50.820;16.274;2022-10-16T04:17:07;4.57;;;2.35;;
36441;SDS011;64346;50.820;16.274;2022-10-16T04:19:35;4.90;;;2.78;;
36441;SDS011;64346;50.820;16.274;2022-10-16T04:22:02;4.57;;;2.58;;
36441;SDS011;64346;50.820;16.274;2022-10-16T04:24:32;5.85;;;2.50;;
36441;SDS011;64346;50.820;16.274;2022-10-16T04:27:01;4.82;;;3.10;;
36441;SDS011;64346;50.820;16.274;2022-10-16T04:29:29;6.82;;;3.35;;
36441;SDS011;64346;50.820;16.274;2022-10-16T04:31:56;8.63;;;3.80;;
36441;SDS011;64346;50.820;16.274;2022-10-16T04:34:24;9.68;;;4.63;;
36441;SDS011;64346;50.820;16.274;2022-10-16T04:36:51;7.32;;;4.15;;
36441;SDS011;64346;50.820;16.274;2022-10-16T04:39:18;7.82;;;4.03;;
36441;SDS011;64346;50.820;16.274;2022-10-16T04:41:45;9.45;;;4.10;;
36441;SDS011;64346;50.820;16.274;2022-10-16T04:44:13;9.68;;;4.82;;
36441;SDS011;64346;50.820;16.274;2022-10-16T04:46:40;7.88;;;4.53;;
36441;SDS011;64346;50.820;16.274;2022-10-16T04:49:07;9.25;;;5.07;;
36441;SDS011;64346;50.820;16.274;2022-10-16T04:51:34;9.43;;;5.53;;
36441;SDS011;64346;50.820;16.274;2022-10-16T04:54:04;9.32;;;5.50;;
36441;SDS011;64346;50.820;16.274;2022-10-16T04:56:34;9.30;;;5.63;;
36441;SDS011;64346;50.820;16.274;2022-10-16T04:59:05;9.15;;;5.40;;
36441;SDS011;64346;50.820;16.274;2022-10-16T05:01:32;9.13;;;5.60;;
36441;SDS011;64346;50.820;16.274;2022-10-16T05:03:59;9.93;;;5.80;;
36441;SDS011;64346;50.820;16.274;2022-10-16T05:06:32;11.45;;;6.97;;
36441;SDS011;64346;50.820;16.274;2022-10-16T05:08:59;9.50;;;5.78;;
36441;SDS011;64346;50.820;16.274;2022-10-16T05:11:30;9.80;;;5.82;;
36441;SDS011;64346;50.820;16.274;2022-10-16T05:13:57;10.43;;;5.88;;
36441;SDS011;64346;50.820;16.274;2022-10-16T05:16:28;10.63;;;6.78;;
36441;SDS011;64346;50.820;16.274;2022-10-16T05:18:58;10.50;;;6.45;;
36441;SDS011;64346;50.820;16.274;2022-10-16T05:21:50;11.45;;;7.07;;
36441;SDS011;64346;50.820;16.274;2022-10-16T05:24:18;11.32;;;6.72;;
36441;SDS011;64346;50.820;16.274;2022-10-16T05:26:45;12.32;;;7.55;;
36441;SDS011;64346;50.820;16.274;2022-10-16T05:29:12;15.02;;;7.75;;
36441;SDS011;64346;50.820;16.274;2022-10-16T05:31:40;11.60;;;7.40;;
36441;SDS011;64346;50.820;16.274;2022-10-16T05:34:07;11.55;;;6.88;;
36441;SDS011;64346;50.820;16.274;2022-10-16T05:36:34;11.57;;;7.72;;
36441;SDS011;64346;50.820;16.274;2022-10-16T05:39:02;11.82;;;7.78;;
36441;SDS011;64346;50.820;16.274;2022-10-16T05:41:29;12.32;;;7.72;;
36441;SDS011;64346;50.820;16.274;2022-10-16T05:43:57;10.93;;;7.05;;
36441;SDS011;64346;50.820;16.274;2022-10-16T05:46:24;11.45;;;7.40;;
36441;SDS011;64346;50.820;16.274;2022-10-16T05:48:52;11.43;;;7.13;;
36441;SDS011;64346;50.820;16.274;2022-10-16T05:51:19;12.68;;;7.22;;
36441;SDS011;64346;50.820;16.274;2022-10-16T05:53:47;11.00;;;7.25;;
36441;SDS011;64346;50.820;16.274;2022-10-16T05:56:14;18.27;;;11.02;;
36441;SDS011;64346;50.820;16.274;2022-10-16T05:58:41;18.83;;;12.43;;
36441;SDS011;64346;50.820;16.274;2022-10-16T06:01:10;18.73;;;12.68;;
36441;SDS011;64346;50.820;16.274;2022-10-16T06:03:40;22.27;;;14.57;;
36441;SDS011;64346;50.820;16.274;2022-10-16T06:06:10;23.08;;;15.13;;
36441;SDS011;64346;50.820;16.274;2022-10-16T06:08:40;21.58;;;15.00;;
36441;SDS011;64346;50.820;16.274;2022-10-16T06:11:09;18.23;;;12.13;;
36441;SDS011;64346;50.820;16.274;2022-10-16T06:13:40;15.00;;;10.25;;
36441;SDS011;64346;50.820;16.274;2022-10-16T06:16:10;13.57;;;8.57;;
36441;SDS011;64346;50.820;16.274;2022-10-16T06:18:38;13.13;;;8.73;;
36441;SDS011;64346;50.820;16.274;2022-10-16T06:21:07;15.13;;;9.20;;
36441;SDS011;64346;50.820;16.274;2022-10-16T06:23:35;16.27;;;10.35;;
36441;SDS011;64346;50.820;16.274;2022-10-16T06:26:10;16.13;;;9.95;;
36441;SDS011;64346;50.820;16.274;2022-10-16T06:28:44;16.85;;;10.25;;
36441;SDS011;64346;50.820;16.274;2022-10-16T06:31:14;16.25;;;10.23;;
36441;SDS011;64346;50.820;16.274;2022-10-16T06:33:42;16.85;;;9.70;;
36441;SDS011;64346;50.820;16.274;2022-10-16T06:36:10;17.10;;;10.75;;
36441;SDS011;64346;50.820;16.274;2022-10-16T06:38:41;14.73;;;9.25;;
36441;SDS011;64346;50.820;16.274;2022-10-16T06:41:09;12.75;;;8.20;;
36441;SDS011;64346;50.820;16.274;2022-10-16T06:43:39;13.57;;;6.85;;
36441;SDS011;64346;50.820;16.274;2022-10-16T06:46:08;10.88;;;6.88;;
36441;SDS011;64346;50.820;16.274;2022-10-16T06:48:37;10.30;;;5.80;;
36441;SDS011;64346;50.820;16.274;2022-10-16T06:51:06;12.32;;;5.95;;
36441;SDS011;64346;50.820;16.274;2022-10-16T06:53:42;10.77;;;6.03;;
36441;SDS011;64346;50.820;16.274;2022-10-16T06:56:29;10.35;;;5.88;;
36441;SDS011;64346;50.820;16.274;2022-10-16T06:58:59;8.65;;;5.82;;
36441;SDS011;64346;50.820;16.274;2022-10-16T07:01:27;12.68;;;6.35;;
36441;SDS011;64346;50.820;16.274;2022-10-16T07:03:55;11.60;;;6.65;;
36441;SDS011;64346;50.820;16.274;2022-10-16T07:06:25;9.27;;;6.22;;
36441;SDS011;64346;50.820;16.274;2022-10-16T07:08:53;9.88;;;6.93;;
36441;SDS011;64346;50.820;16.274;2022-10-16T07:11:23;10.50;;;6.88;;
36441;SDS011;64346;50.820;16.274;2022-10-16T07:13:50;11.73;;;6.75;;
36441;SDS011;64346;50.820;16.274;2022-10-16T07:16:23;12.73;;;7.35;;
36441;SDS011;64346;50.820;16.274;2022-10-16T07:18:53;13.25;;;7.30;;
36441;SDS011;64346;50.820;16.274;2022-10-16T07:21:21;12.07;;;7.13;;
36441;SDS011;64346;50.820;16.274;2022-10-16T07:23:56;14.15;;;8.30;;
36441;SDS011;64346;50.820;16.274;2022-10-16T07:26:24;13.32;;;8.55;;
36441;SDS011;64346;50.820;16.274;2022-10-16T07:28:53;12.73;;;8.05;;
36441;SDS011;64346;50.820;16.274;2022-10-16T07:31:20;12.68;;;8.27;;
36441;SDS011;64346;50.820;16.274;2022-10-16T07:33:48;11.68;;;8.10;;
36441;SDS011;64346;50.820;16.274;2022-10-16T07:36:18;11.82;;;8.50;;
36441;SDS011;64346;50.820;16.274;2022-10-16T07:38:48;12.43;;;7.90;;
36441;SDS011;64346;50.820;16.274;2022-10-16T07:43:49;12.95;;;8.07;;
36441;SDS011;64346;50.820;16.274;2022-10-16T07:46:17;11.20;;;7.47;;
36441;SDS011;64346;50.820;16.274;2022-10-16T07:48:46;10.80;;;7.78;;
36441;SDS011;64346;50.820;16.274;2022-10-16T07:51:15;10.45;;;6.80;;
36441;SDS011;64346;50.820;16.274;2022-10-16T07:53:44;11.18;;;6.50;;
36441;SDS011;64346;50.820;16.274;2022-10-16T07:56:12;11.45;;;7.63;;
36441;SDS011;64346;50.820;16.274;2022-10-16T07:58:39;9.70;;;6.45;;
36441;SDS011;64346;50.820;16.274;2022-10-16T08:01:08;10.63;;;6.38;;
36441;SDS011;64346;50.820;16.274;2022-10-16T08:03:37;9.60;;;6.25;;
36441;SDS011;64346;50.820;16.274;2022-10-16T08:06:04;10.77;;;6.20;;
36441;SDS011;64346;50.820;16.274;2022-10-16T08:08:32;8.98;;;5.60;;
36441;SDS011;64346;50.820;16.274;2022-10-16T08:10:59;9.27;;;5.35;;
36441;SDS011;64346;50.820;16.274;2022-10-16T08:13:27;9.20;;;5.80;;
36441;SDS011;64346;50.820;16.274;2022-10-16T08:15:57;8.52;;;5.38;;
36441;SDS011;64346;50.820;16.274;2022-10-16T08:18:25;9.25;;;6.00;;
36441;SDS011;64346;50.820;16.274;2022-10-16T08:20:55;9.65;;;6.63;;
36441;SDS011;64346;50.820;16.274;2022-10-16T08:23:26;12.35;;;6.88;;
36441;SDS011;64346;50.820;16.274;2022-10-16T08:26:01;10.50;;;7.10;;
36441;SDS011;64346;50.820;16.274;2022-10-16T08:28:33;11.55;;;6.88;;
36441;SDS011;64346;50.820;16.274;2022-10-16T08:31:19;10.55;;;6.88;;
36441;SDS011;64346;50.820;16.274;2022-10-16T08:33:47;10.00;;;6.80;;
36441;SDS011;64346;50.820;16.274;2022-10-16T08:36:15;8.95;;;5.65;;
36441;SDS011;64346;50.820;16.274;2022-10-16T08:38:43;8.82;;;5.45;;
36441;SDS011;64346;50.820;16.274;2022-10-16T08:41:37;8.80;;;5.72;;
36441;SDS011;64346;50.820;16.274;2022-10-16T08:49:53;9.27;;;5.85;;
36441;SDS011;64346;50.820;16.274;2022-10-16T08:52:38;10.68;;;6.25;;
36441;SDS011;64346;50.820;16.274;2022-10-16T08:58:15;8.05;;;5.70;;
36441;SDS011;64346;50.820;16.274;2022-10-16T09:00:46;10.60;;;6.40;;
36441;SDS011;64346;50.820;16.274;2022-10-16T09:06:27;10.15;;;6.65;;
36441;SDS011;64346;50.820;16.274;2022-10-16T09:09:17;9.60;;;5.80;;
36441;SDS011;64346;50.820;16.274;2022-10-16T09:17:46;9.82;;;6.05;;
36441;SDS011;64346;50.820;16.274;2022-10-16T09:23:15;9.90;;;5.32;;
36441;SDS011;64346;50.820;16.274;2022-10-16T09:25:45;7.30;;;4.80;;
36441;SDS011;64346;50.820;16.274;2022-10-16T09:28:17;9.38;;;4.95;;
36441;SDS011;64346;50.820;16.274;2022-10-16T09:30:45;7.85;;;4.68;;
36441;SDS011;64346;50.820;16.274;2022-10-16T09:33:13;6.85;;;4.15;;
36441;SDS011;64346;50.820;16.274;2022-10-16T09:35:42;8.82;;;3.90;;
36441;SDS011;64346;50.820;16.274;2022-10-16T09:40:58;5.72;;;3.30;;
36441;SDS011;64346;50.820;16.274;2022-10-16T09:48:54;5.03;;;2.88;;
36441;SDS011;64346;50.820;16.274;2022-10-16T09:54:01;4.93;;;2.60;;
36441;SDS011;64346;50.820;16.274;2022-10-16T09:56:30;4.53;;;2.70;;
36441;SDS011;64346;50.820;16.274;2022-10-16T09:59:00;3.78;;;2.65;;
36441;SDS011;64346;50.820;16.274;2022-10-16T10:01:37;4.20;;;2.88;;
36441;SDS011;64346;50.820;16.274;2022-10-16T10:04:15;5.22;;;3.15;;
36441;SDS011;64346;50.820;16.274;2022-10-16T10:06:46;6.82;;;3.13;;
36441;SDS011;64346;50.820;16.274;2022-10-16T10:11:54;4.10;;;3.00;;
36441;SDS011;64346;50.820;16.274;2022-10-16T10:14:23;4.57;;;3.30;;
36441;SDS011;64346;50.820;16.274;2022-10-16T10:16:52;5.13;;;3.35;;
36441;SDS011;64346;50.820;16.274;2022-10-16T10:22:24;5.15;;;3.05;;
36441;SDS011;64346;50.820;16.274;2022-10-16T10:30:20;6.30;;;3.38;;
36441;SDS011;64346;50.820;16.274;2022-10-16T10:47:25;7.13;;;3.92;;
36441;SDS011;64346;50.820;16.274;2022-10-16T10:52:38;3.67;;;2.47;;
36441;SDS011;64346;50.820;16.274;2022-10-16T10:55:30;4.60;;;3.00;;
36441;SDS011;64346;50.820;16.274;2022-10-16T11:00:47;8.20;;;4.00;;
36441;SDS011;64346;50.820;16.274;2022-10-16T11:03:35;5.68;;;3.08;;
36441;SDS011;64346;50.820;16.274;2022-10-16T11:06:29;8.10;;;3.70;;
36441;SDS011;64346;50.820;16.274;2022-10-16T11:09:12;7.60;;;4.53;;
36441;SDS011;64346;50.820;16.274;2022-10-16T11:11:55;6.75;;;4.50;;
36441;SDS011;64346;50.820;16.274;2022-10-16T11:15:20;7.60;;;4.50;;
36441;SDS011;64346;50.820;16.274;2022-10-16T11:17:31;7.20;;;4.53;;
36441;SDS011;64346;50.820;16.274;2022-10-16T11:20:11;9.13;;;5.07;;
36441;SDS011;64346;50.820;16.274;2022-10-16T11:22:44;7.22;;;4.50;;
36441;SDS011;64346;50.820;16.274;2022-10-16T11:28:27;8.13;;;4.32;;
36441;SDS011;64346;50.820;16.274;2022-10-16T11:36:40;7.85;;;4.30;;
36441;SDS011;64346;50.820;16.274;2022-10-16T11:39:24;8.43;;;4.50;;
36441;SDS011;64346;50.820;16.274;2022-10-16T11:53:20;8.43;;;4.47;;
36441;SDS011;64346;50.820;16.274;2022-10-16T11:55:49;8.48;;;5.07;;
36441;SDS011;64346;50.820;16.274;2022-10-16T11:58:24;6.50;;;4.00;;
36441;SDS011;64346;50.820;16.274;2022-10-16T12:01:27;8.25;;;3.83;;
36441;SDS011;64346;50.820;16.274;2022-10-16T12:06:33;7.80;;;4.43;;
36441;SDS011;64346;50.820;16.274;2022-10-16T12:09:09;7.68;;;4.00;;
36441;SDS011;64346;50.820;16.274;2022-10-16T12:11:59;8.68;;;4.82;;
36441;SDS011;64346;50.820;16.274;2022-10-16T12:17:34;6.50;;;4.55;;
36441;SDS011;64346;50.820;16.274;2022-10-16T12:25:21;7.78;;;4.40;;
36441;SDS011;64346;50.820;16.274;2022-10-16T12:28:00;11.05;;;5.97;;
36441;SDS011;64346;50.820;16.274;2022-10-16T12:33:03;7.13;;;4.70;;
36441;SDS011;64346;50.820;16.274;2022-10-16T12:35:33;9.90;;;4.43;;
36441;SDS011;64346;50.820;16.274;2022-10-16T12:38:14;7.25;;;4.43;;
36441;SDS011;64346;50.820;16.274;2022-10-16T12:41:06;6.25;;;3.92;;
36441;SDS011;64346;50.820;16.274;2022-10-16T12:43:36;7.70;;;4.25;;
36441;SDS011;64346;50.820;16.274;2022-10-16T12:48:40;7.30;;;4.00;;
36441;SDS011;64346;50.820;16.274;2022-10-16T12:54:19;8.95;;;4.00;;
36441;SDS011;64346;50.820;16.274;2022-10-16T13:13:50;8.18;;;3.80;;
36441;SDS011;64346;50.820;16.274;2022-10-16T13:31:05;10.15;;;4.38;;
36441;SDS011;64346;50.820;16.274;2022-10-16T13:33:55;7.95;;;4.03;;
36441;SDS011;64346;50.820;16.274;2022-10-16T13:36:28;6.75;;;3.75;;
36441;SDS011;64346;50.820;16.274;2022-10-16T13:41:41;6.32;;;3.42;;
36441;SDS011;64346;50.820;16.274;2022-10-16T13:44:13;8.27;;;4.07;;
36441;SDS011;64346;50.820;16.274;2022-10-16T13:46:57;8.70;;;4.32;;
36441;SDS011;64346;50.820;16.274;2022-10-16T13:49:26;7.20;;;4.30;;
36441;SDS011;64346;50.820;16.274;2022-10-16T13:51:57;12.15;;;5.03;;
36441;SDS011;64346;50.820;16.274;2022-10-16T13:54:29;8.73;;;3.90;;
36441;SDS011;64346;50.820;16.274;2022-10-16T13:57:04;8.52;;;3.63;;
36441;SDS011;64346;50.820;16.274;2022-10-16T13:59:52;6.25;;;3.65;;
36441;SDS011;64346;50.820;16.274;2022-10-16T14:05:02;6.20;;;3.63;;
36441;SDS011;64346;50.820;16.274;2022-10-16T14:07:32;7.18;;;3.70;;
36441;SDS011;64346;50.820;16.274;2022-10-16T14:10:04;6.05;;;3.70;;
36441;SDS011;64346;50.820;16.274;2022-10-16T14:12:34;7.10;;;3.50;;
36441;SDS011;64346;50.820;16.274;2022-10-16T14:15:02;9.35;;;4.28;;
36441;SDS011;64346;50.820;16.274;2022-10-16T14:17:30;5.80;;;3.60;;
36441;SDS011;64346;50.820;16.274;2022-10-16T14:20:00;7.40;;;3.55;;
36441;SDS011;64346;50.820;16.274;2022-10-16T14:22:35;11.02;;;5.47;;
36441;SDS011;64346;50.820;16.274;2022-10-16T14:28:00;7.03;;;3.63;;
36441;SDS011;64346;50.820;16.274;2022-10-16T14:30:51;7.30;;;4.57;;
36441;SDS011;64346;50.820;16.274;2022-10-16T14:36:19;9.70;;;6.00;;
36441;SDS011;64346;50.820;16.274;2022-10-16T14:38:57;9.25;;;5.45;;
36441;SDS011;64346;50.820;16.274;2022-10-16T14:41:27;11.13;;;6.43;;
36441;SDS011;64346;50.820;16.274;2022-10-16T14:43:57;10.10;;;6.50;;
36441;SDS011;64346;50.820;16.274;2022-10-16T14:46:34;12.45;;;7.50;;
36441;SDS011;64346;50.820;16.274;2022-10-16T14:49:05;13.70;;;7.57;;
36441;SDS011;64346;50.820;16.274;2022-10-16T14:51:40;12.57;;;7.68;;
36441;SDS011;64346;50.820;16.274;2022-10-16T14:54:09;12.80;;;8.30;;
36441;SDS011;64346;50.820;16.274;2022-10-16T14:56:46;13.77;;;7.35;;
36441;SDS011;64346;50.820;16.274;2022-10-16T15:01:59;11.93;;;7.20;;
36441;SDS011;64346;50.820;16.274;2022-10-16T15:04:43;14.43;;;7.70;;
36441;SDS011;64346;50.820;16.274;2022-10-16T15:07:10;10.45;;;7.00;;
36441;SDS011;64346;50.820;16.274;2022-10-16T15:09:38;12.77;;;8.43;;
36441;SDS011;64346;50.820;16.274;2022-10-16T15:12:15;13.85;;;8.07;;
36441;SDS011;64346;50.820;16.274;2022-10-16T15:14:43;13.07;;;7.25;;
36441;SDS011;64346;50.820;16.274;2022-10-16T15:17:10;10.70;;;6.72;;
36441;SDS011;64346;50.820;16.274;2022-10-16T15:19:38;11.48;;;6.50;;
36441;SDS011;64346;50.820;16.274;2022-10-16T15:22:05;12.07;;;7.25;;
36441;SDS011;64346;50.820;16.274;2022-10-16T15:24:32;14.18;;;9.23;;
36441;SDS011;64346;50.820;16.274;2022-10-16T15:26:59;13.85;;;9.02;;
36441;SDS011;64346;50.820;16.274;2022-10-16T15:29:27;20.58;;;10.85;;
36441;SDS011;64346;50.820;16.274;2022-10-16T15:31:54;15.05;;;10.27;;
36441;SDS011;64346;50.820;16.274;2022-10-16T15:34:21;15.88;;;9.77;;
36441;SDS011;64346;50.820;16.274;2022-10-16T15:36:49;16.38;;;10.55;;
36441;SDS011;64346;50.820;16.274;2022-10-16T15:39:17;17.25;;;10.60;;
36441;SDS011;64346;50.820;16.274;2022-10-16T15:41:46;17.17;;;11.40;;
36441;SDS011;64346;50.820;16.274;2022-10-16T15:44:14;17.20;;;11.35;;
36441;SDS011;64346;50.820;16.274;2022-10-16T15:46:44;15.82;;;11.65;;
36441;SDS011;64346;50.820;16.274;2022-10-16T15:49:14;16.25;;;10.95;;
36441;SDS011;64346;50.820;16.274;2022-10-16T15:51:42;16.30;;;11.57;;
36441;SDS011;64346;50.820;16.274;2022-10-16T15:54:09;19.50;;;12.35;;
36441;SDS011;64346;50.820;16.274;2022-10-16T15:56:36;20.25;;;12.65;;
36441;SDS011;64346;50.820;16.274;2022-10-16T15:59:04;18.98;;;12.38;;
36441;SDS011;64346;50.820;16.274;2022-10-16T16:01:32;21.00;;;13.75;;
36441;SDS011;64346;50.820;16.274;2022-10-16T16:04:00;22.80;;;15.38;;
36441;SDS011;64346;50.820;16.274;2022-10-16T16:06:41;26.60;;;16.55;;
36441;SDS011;64346;50.820;16.274;2022-10-16T16:09:11;24.90;;;16.23;;
36441;SDS011;64346;50.820;16.274;2022-10-16T16:11:39;25.77;;;15.73;;
36441;SDS011;64346;50.820;16.274;2022-10-16T16:14:07;21.23;;;15.45;;
36441;SDS011;64346;50.820;16.274;2022-10-16T16:16:37;24.00;;;15.95;;
36441;SDS011;64346;50.820;16.274;2022-10-16T16:19:04;24.75;;;16.98;;
36441;SDS011;64346;50.820;16.274;2022-10-16T16:21:37;22.58;;;15.75;;
36441;SDS011;64346;50.820;16.274;2022-10-16T16:24:05;23.42;;;16.67;;
36441;SDS011;64346;50.820;16.274;2022-10-16T16:26:32;22.88;;;16.30;;
36441;SDS011;64346;50.820;16.274;2022-10-16T16:28:59;26.30;;;17.63;;
36441;SDS011;64346;50.820;16.274;2022-10-16T16:31:27;27.85;;;18.92;;
36441;SDS011;64346;50.820;16.274;2022-10-16T16:33:56;28.33;;;19.98;;
36441;SDS011;64346;50.820;16.274;2022-10-16T16:36:23;28.27;;;19.35;;
36441;SDS011;64346;50.820;16.274;2022-10-16T16:38:54;29.00;;;20.30;;
36441;SDS011;64346;50.820;16.274;2022-10-16T16:41:22;27.35;;;19.77;;
36441;SDS011;64346;50.820;16.274;2022-10-16T16:43:51;32.90;;;19.85;;
36441;SDS011;64346;50.820;16.274;2022-10-16T16:46:19;29.20;;;21.63;;
36441;SDS011;64346;50.820;16.274;2022-10-16T16:48:49;31.75;;;20.83;;
36441;SDS011;64346;50.820;16.274;2022-10-16T16:51:17;29.40;;;20.85;;
36441;SDS011;64346;50.820;16.274;2022-10-16T16:53:46;35.10;;;23.33;;
36441;SDS011;64346;50.820;16.274;2022-10-16T16:56:15;34.97;;;22.88;;
36441;SDS011;64346;50.820;16.274;2022-10-16T16:58:47;34.05;;;22.58;;
36441;SDS011;64346;50.820;16.274;2022-10-16T17:01:16;34.72;;;21.58;;
36441;SDS011;64346;50.820;16.274;2022-10-16T17:03:48;29.95;;;20.42;;
36441;SDS011;64346;50.820;16.274;2022-10-16T17:06:18;33.03;;;20.55;;
36441;SDS011;64346;50.820;16.274;2022-10-16T17:08:49;28.48;;;19.17;;
36441;SDS011;64346;50.820;16.274;2022-10-16T17:11:23;29.83;;;19.77;;
36441;SDS011;64346;50.820;16.274;2022-10-16T17:13:55;28.20;;;19.98;;
36441;SDS011;64346;50.820;16.274;2022-10-16T17:16:25;27.83;;;19.33;;
36441;SDS011;64346;50.820;16.274;2022-10-16T17:18:58;27.88;;;18.65;;
36441;SDS011;64346;50.820;16.274;2022-10-16T17:21:26;32.92;;;21.20;;
36441;SDS011;64346;50.820;16.274;2022-10-16T17:23:53;28.38;;;18.00;;
36441;SDS011;64346;50.820;16.274;2022-10-16T17:26:23;28.40;;;18.88;;
36441;SDS011;64346;50.820;16.274;2022-10-16T17:28:55;25.67;;;17.65;;
36441;SDS011;64346;50.820;16.274;2022-10-16T17:31:26;27.63;;;17.92;;
36441;SDS011;64346;50.820;16.274;2022-10-16T17:33:59;29.17;;;18.85;;
36441;SDS011;64346;50.820;16.274;2022-10-16T17:36:30;26.63;;;18.73;;
36441;SDS011;64346;50.820;16.274;2022-10-16T17:39:03;33.20;;;18.58;;